createdAt,value
2019-05-17T03:54:22.918Z,100.00
2019-05-17T03:56:54.525Z,100.00
2019-05-17T03:59:25.631Z,100.00
2019-05-17T04:01:56.845Z,100.00
2019-05-17T04:04:28.028Z,100.00
2019-05-17T04:06:59.203Z,100.00
2019-05-17T04:09:32.790Z,100.00
2019-05-17T04:12:03.209Z,100.00
2019-05-17T04:14:34.340Z,100.00
2019-05-17T04:17:05.496Z,100.00
2019-05-17T04:19:36.668Z,100.00
2019-05-17T04:22:07.723Z,100.00
2019-05-17T04:24:38.898Z,100.00
2019-05-17T04:27:13.395Z,100.00
2019-05-17T04:29:42.929Z,100.00
2019-05-17T04:32:14.139Z,100.00
2019-05-17T04:34:45.326Z,100.00
2019-05-17T04:37:16.457Z,100.00
2019-05-17T04:39:47.653Z,100.00
2019-05-17T04:42:18.974Z,100.00
2019-05-17T04:44:52.725Z,100.00
2019-05-17T04:50:54.465Z,100.00
2019-05-17T04:53:25.614Z,100.00
2019-05-17T04:55:56.861Z,100.00
2019-05-17T04:58:28.981Z,100.00
2019-05-17T05:01:03.668Z,100.00
2019-05-17T05:03:33.005Z,100.00
2019-05-17T05:06:04.143Z,100.00
2019-05-17T05:08:35.782Z,98.60
2019-05-17T05:11:06.941Z,96.56
2019-05-17T05:13:38.096Z,96.50
2019-05-17T05:16:10.191Z,97.48
2019-05-17T05:18:42.079Z,98.12
2019-05-17T05:21:13.361Z,97.58
2019-05-17T05:23:44.773Z,96.00
2019-05-17T05:26:15.906Z,95.23
2019-05-17T05:28:49.585Z,93.29
2019-05-17T05:31:19.912Z,88.29
2019-05-17T05:33:52.221Z,87.65
2019-05-17T05:36:23.607Z,86.81
2019-05-17T05:38:54.763Z,83.63
2019-05-17T05:41:25.903Z,81.70
2019-05-17T05:43:57.059Z,80.51
2019-05-17T05:46:28.203Z,77.13
2019-05-17T05:49:01.560Z,73.49
2019-05-17T05:51:32.225Z,70.28
2019-05-17T05:54:04.350Z,67.70
2019-05-17T05:56:36.454Z,64.31
2019-05-17T05:59:07.802Z,63.53
2019-05-17T06:01:38.927Z,59.29
2019-05-17T06:04:11.785Z,59.32
2019-05-17T06:06:44.094Z,57.63
2019-05-17T06:09:15.328Z,57.65
2019-05-17T06:11:46.457Z,56.70
2019-05-17T06:14:17.587Z,57.91
2019-05-17T06:16:48.917Z,55.66
2019-05-17T06:19:22.249Z,56.39
2019-05-17T06:21:52.851Z,56.88
2019-05-17T06:24:23.989Z,56.72
2019-05-17T06:26:55.166Z,57.55
2019-05-17T06:29:26.401Z,58.45
2019-05-17T06:31:57.505Z,57.65
2019-05-17T06:34:28.637Z,58.63
2019-05-17T06:37:02.063Z,60.41
2019-05-17T06:39:35.358Z,60.04
2019-05-17T06:42:08.786Z,59.88
2019-05-17T06:44:41.715Z,60.64
2019-05-17T06:47:13.048Z,60.88
2019-05-17T06:49:44.199Z,59.01
2019-05-17T06:52:15.275Z,61.29
2019-05-17T06:54:46.381Z,64.82
2019-05-17T06:57:18.019Z,67.18
2019-05-17T06:59:49.203Z,66.94
2019-05-17T07:02:20.323Z,68.09
2019-05-17T07:04:52.705Z,69.87
2019-05-17T07:07:27.181Z,69.12
2019-05-17T07:10:00.788Z,70.04
2019-05-17T07:12:33.060Z,70.44
2019-05-17T07:15:04.780Z,69.92
2019-05-17T07:17:35.899Z,68.60
2019-05-17T07:20:07.102Z,67.30
2019-05-17T07:22:40.857Z,66.74
2019-05-17T07:25:11.391Z,65.62
2019-05-17T07:27:45.892Z,65.15
2019-05-17T07:30:15.948Z,64.73
2019-05-17T07:32:49.603Z,63.12
2019-05-17T07:35:19.984Z,62.38
2019-05-17T07:37:51.408Z,62.26
2019-05-17T07:40:22.648Z,61.79
2019-05-17T07:43:07.064Z,61.72
2019-05-17T07:45:26.727Z,62.16
2019-05-17T07:48:00.013Z,61.87
2019-05-17T07:50:30.708Z,62.10
2019-05-17T07:53:02.136Z,61.45
2019-05-17T07:55:33.257Z,60.23
2019-05-17T07:58:04.404Z,61.13
2019-05-17T08:00:35.523Z,63.31
2019-05-17T08:03:06.751Z,62.50
2019-05-17T08:05:40.058Z,62.58
2019-05-17T08:08:10.962Z,63.88
2019-05-17T08:10:42.098Z,64.82
2019-05-17T08:13:25.901Z,64.43
2019-05-17T08:15:46.261Z,64.33
2019-05-17T08:18:17.405Z,64.89
2019-05-17T08:20:51.320Z,66.38
2019-05-17T08:23:22.496Z,65.70
2019-05-17T08:25:56.306Z,65.92
2019-05-17T08:28:27.251Z,65.09
2019-05-17T08:31:01.140Z,63.33
2019-05-17T08:33:32.561Z,63.09
2019-05-17T08:36:03.704Z,63.75
2019-05-17T08:38:34.857Z,61.23
2019-05-17T08:41:05.967Z,61.07
2019-05-17T08:43:45.786Z,60.97
2019-05-17T08:46:10.552Z,58.92
2019-05-17T08:48:42.322Z,59.49
2019-05-17T08:51:13.485Z,60.14
2019-05-17T08:53:44.606Z,60.10
2019-05-17T08:56:15.752Z,59.03
2019-05-17T08:58:46.930Z,60.29
2019-05-17T09:01:19.589Z,61.85
2019-05-17T09:03:50.949Z,62.67
2019-05-17T09:06:29.332Z,63.36
2019-05-17T09:09:00.949Z,63.24
2019-05-17T09:11:33.741Z,62.95
2019-05-17T09:14:05.228Z,62.77
2019-05-17T09:16:36.381Z,61.55
2019-05-17T09:19:09.944Z,61.22
2019-05-17T09:21:40.380Z,59.78
2019-05-17T09:24:11.482Z,59.51
2019-05-17T09:26:42.638Z,60.25
2019-05-17T09:29:13.775Z,59.95
2019-05-17T09:31:44.879Z,58.68
2019-05-17T09:34:16.032Z,58.49
2019-05-17T09:36:49.578Z,58.09
2019-05-17T09:39:20.181Z,57.78
2019-05-17T09:41:51.326Z,56.48
2019-05-17T09:44:23.768Z,53.46
2019-05-17T09:46:56.002Z,52.37
2019-05-17T09:49:27.159Z,51.18
2019-05-17T09:52:00.167Z,50.24
2019-05-17T09:54:41.621Z,49.59
2019-05-17T09:57:04.075Z,49.23
2019-05-17T09:59:36.673Z,48.11
2019-05-17T10:02:09.500Z,48.34
2019-05-17T10:04:40.786Z,46.10
2019-05-17T10:07:11.915Z,45.23
2019-05-17T10:09:43.012Z,44.43
2019-05-17T10:12:14.130Z,44.33
2019-05-17T10:14:45.258Z,44.71
2019-05-17T10:17:16.375Z,44.99
2019-05-17T10:19:47.645Z,44.68
2019-05-17T10:22:20.060Z,46.37
2019-05-17T10:24:52.259Z,47.48
2019-05-17T10:27:23.440Z,48.73
2019-05-17T10:29:54.568Z,49.11
2019-05-17T10:32:25.833Z,48.95
2019-05-17T10:34:56.988Z,48.72
2019-05-17T10:37:30.256Z,47.62
2019-05-17T10:40:01.950Z,47.24
2019-05-17T10:42:33.103Z,47.11
2019-05-17T10:45:05.980Z,47.85
2019-05-17T10:47:39.464Z,47.09
2019-05-17T10:50:11.065Z,46.81
2019-05-17T10:52:42.308Z,45.50
2019-05-17T10:55:13.539Z,48.25
2019-05-17T10:57:44.698Z,47.42
2019-05-17T11:00:16.778Z,48.46
2019-05-17T11:02:47.928Z,47.16
2019-05-17T11:05:20.787Z,45.88
2019-05-17T11:07:51.959Z,47.28
2019-05-17T11:10:24.167Z,46.92
2019-05-17T11:12:55.337Z,47.23
2019-05-17T11:15:27.471Z,49.39
2019-05-17T11:17:58.590Z,50.45
2019-05-17T11:20:29.722Z,49.98
2019-05-17T11:23:00.816Z,48.84
2019-05-17T11:25:31.985Z,49.20
2019-05-17T11:28:04.590Z,48.69
2019-05-17T11:30:35.847Z,46.87
2019-05-17T11:33:06.943Z,45.97
2019-05-17T11:35:38.061Z,47.67
2019-05-17T11:38:09.195Z,48.89
2019-05-17T11:40:40.356Z,48.12
2019-05-17T11:43:11.671Z,49.48
2019-05-17T11:45:42.806Z,48.18
2019-05-17T11:48:13.973Z,48.58
2019-05-17T11:50:45.125Z,46.25
2019-05-17T11:53:16.182Z,46.78
2019-05-17T11:55:47.358Z,47.02
2019-05-17T11:58:18.507Z,44.02
2019-05-17T12:00:49.635Z,42.63
2019-05-17T12:03:20.731Z,42.40
2019-05-17T12:05:51.876Z,43.93
2019-05-17T12:08:36.767Z,45.63
2019-05-17T12:11:07.893Z,45.34
2019-05-17T12:13:39.033Z,45.13
2019-05-17T12:16:10.182Z,47.50
2019-05-17T12:18:41.336Z,48.22
2019-05-17T12:21:12.558Z,50.05
2019-05-17T12:23:43.699Z,50.37
2019-05-17T12:26:14.822Z,52.45
2019-05-17T12:28:46.014Z,53.22
2019-05-17T12:31:17.097Z,54.02
2019-05-17T12:33:48.334Z,55.67
2019-05-17T12:36:19.450Z,55.89
2019-05-17T12:38:50.575Z,62.74
2019-05-17T12:41:21.703Z,65.94
2019-05-17T12:43:53.021Z,65.68
2019-05-17T12:46:24.168Z,71.33
2019-05-17T12:48:55.650Z,73.50
2019-05-17T12:51:26.789Z,72.54
2019-05-17T12:53:57.935Z,74.53
2019-05-17T12:56:29.117Z,74.77
2019-05-17T12:59:00.255Z,70.30
2019-05-17T13:01:31.362Z,71.85
2019-05-17T13:04:02.662Z,74.08
2019-05-17T13:06:34.139Z,78.47
2019-05-17T13:09:06.254Z,77.21
2019-05-17T13:11:37.378Z,72.28
2019-05-17T13:14:09.525Z,71.90
2019-05-17T13:16:40.677Z,74.28
2019-05-17T13:19:11.791Z,71.60
2019-05-17T13:21:42.969Z,67.36
2019-05-17T13:24:14.184Z,71.48
2019-05-17T13:26:45.314Z,62.00
2019-05-17T13:29:16.439Z,63.53
2019-05-17T13:31:47.678Z,58.87
2019-05-17T13:34:18.812Z,58.42
2019-05-17T13:36:51.120Z,62.17
2019-05-17T13:39:22.235Z,57.48
2019-05-17T13:41:53.426Z,56.00
2019-05-17T13:44:24.608Z,58.35
2019-05-17T13:46:55.761Z,60.70
2019-05-17T13:49:26.888Z,59.66
2019-05-17T13:51:58.006Z,53.23
2019-05-17T13:54:29.183Z,64.30
2019-05-17T13:57:00.424Z,50.30
2019-05-17T13:59:31.657Z,45.27
2019-05-17T14:02:02.971Z,44.86
2019-05-17T14:04:34.199Z,45.27
2019-05-17T14:07:06.260Z,45.40
2019-05-17T14:09:37.418Z,42.45
2019-05-17T14:12:08.939Z,42.32
2019-05-17T14:14:41.013Z,40.56
2019-05-17T14:17:13.534Z,40.28
2019-05-17T14:19:44.681Z,41.21
2019-05-17T14:22:15.838Z,41.53
2019-05-17T14:24:47.115Z,39.89
2019-05-17T14:27:18.297Z,36.77
2019-05-17T14:29:49.484Z,36.47
2019-05-17T14:32:20.630Z,34.20
2019-05-17T14:34:51.787Z,32.19
2019-05-17T14:37:23.068Z,31.50
2019-05-17T14:39:54.221Z,30.82
2019-05-17T14:42:25.383Z,31.92
2019-05-17T14:44:56.555Z,30.46
2019-05-17T14:47:27.770Z,29.66
2019-05-17T14:49:58.918Z,29.90
2019-05-17T14:52:30.137Z,28.51
2019-05-17T14:55:01.259Z,27.87
2019-05-17T14:57:32.396Z,30.70
2019-05-17T15:00:07.528Z,32.52
2019-05-17T15:02:43.484Z,31.86
2019-05-17T15:05:15.215Z,33.31
2019-05-17T15:07:46.614Z,35.79
2019-05-17T15:10:17.789Z,37.65
2019-05-17T15:12:49.982Z,35.62
2019-05-17T15:15:28.484Z,34.48
2019-05-17T15:17:54.190Z,32.83
2019-05-17T15:20:25.368Z,30.86
2019-05-17T15:22:56.489Z,29.24
2019-05-17T15:25:27.584Z,28.61
2019-05-17T15:27:58.728Z,26.77
2019-05-17T15:30:30.085Z,28.21
2019-05-17T15:33:01.352Z,27.77
2019-05-17T15:35:32.499Z,26.41
2019-05-17T15:38:03.752Z,25.11
2019-05-17T15:40:35.049Z,25.04
2019-05-17T15:43:06.241Z,24.85
2019-05-17T15:45:37.334Z,24.71
2019-05-17T15:48:08.458Z,23.61
2019-05-17T15:50:39.608Z,22.72
2019-05-17T15:53:10.724Z,22.86
2019-05-17T15:55:41.982Z,23.22
2019-05-17T15:58:13.111Z,23.45
2019-05-17T16:00:44.322Z,23.27
2019-05-17T16:03:15.460Z,23.13
2019-05-17T16:05:46.695Z,22.92
2019-05-17T16:08:18.060Z,22.92
2019-05-17T16:10:49.245Z,24.03
2019-05-17T16:13:20.558Z,22.92
2019-05-17T16:15:51.967Z,22.85
2019-05-17T16:18:24.321Z,22.27
2019-05-17T16:20:55.426Z,22.08
2019-05-17T16:23:26.612Z,21.51
2019-05-17T16:25:57.766Z,21.56
2019-05-17T16:28:29.011Z,21.79
2019-05-17T16:31:03.404Z,21.82
2019-05-17T16:33:36.109Z,21.66
2019-05-17T16:36:07.288Z,21.24
2019-05-17T16:38:38.931Z,21.40
2019-05-17T16:41:11.613Z,21.56
2019-05-17T16:43:42.742Z,21.01
2019-05-17T16:46:13.929Z,21.02
2019-05-17T16:48:45.236Z,21.34
2019-05-17T16:51:19.719Z,21.51
2019-05-17T16:53:51.587Z,22.40
2019-05-17T16:56:23.588Z,22.59
2019-05-17T16:58:54.811Z,22.61
2019-05-17T17:01:26.676Z,22.88
2019-05-17T17:03:58.953Z,23.69
2019-05-17T17:06:31.909Z,27.13
2019-05-17T17:09:03.184Z,25.94
2019-05-17T17:11:35.139Z,24.79
2019-05-17T17:14:09.521Z,25.22
2019-05-17T17:16:44.577Z,25.22
2019-05-17T17:19:19.465Z,24.96
